createdAt,value
2023-03-24T00:02:03.100Z,5.25
2023-03-24T00:04:53.618Z,4.53
2023-03-24T00:07:43.510Z,5.68
2023-03-24T00:10:34.702Z,7.00
2023-03-24T00:13:22.822Z,5.85
2023-03-24T00:16:13.605Z,5.45
2023-03-24T00:19:01.476Z,5.88
2023-03-24T00:21:50.666Z,7.22
2023-03-24T00:24:38.684Z,5.28
2023-03-24T00:27:30.271Z,5.20
2023-03-24T00:30:20.469Z,4.90
2023-03-24T00:33:08.287Z,6.32
2023-03-24T00:35:57.825Z,5.40
2023-03-24T00:39:12.515Z,4.68
2023-03-24T00:42:01.788Z,3.97
2023-03-24T00:44:49.928Z,4.80
2023-03-24T00:47:38.581Z,4.85
2023-03-24T00:50:27.603Z,5.45
2023-03-24T00:53:17.014Z,4.93
2023-03-24T00:56:06.832Z,5.28
2023-03-24T00:58:57.759Z,4.82
2023-03-24T01:01:45.693Z,4.65
2023-03-24T01:04:36.278Z,4.65
2023-03-24T01:07:25.425Z,4.63
2023-03-24T01:10:15.495Z,4.45
2023-03-24T01:13:05.414Z,4.38
2023-03-24T01:15:54.783Z,4.30
2023-03-24T01:18:42.866Z,4.30
2023-03-24T01:21:31.838Z,4.82
2023-03-24T01:24:19.639Z,4.35
2023-03-24T01:27:07.861Z,4.20
2023-03-24T01:30:01.977Z,4.45
2023-03-24T01:32:49.961Z,4.38
2023-03-24T01:35:38.427Z,4.40
2023-03-24T01:38:26.394Z,5.13
2023-03-24T01:41:14.288Z,4.70
2023-03-24T01:44:03.026Z,5.35
2023-03-24T01:46:52.500Z,5.03
2023-03-24T01:49:44.428Z,4.45
2023-03-24T01:52:36.058Z,5.13
2023-03-24T01:55:25.260Z,5.00
2023-03-24T01:58:14.004Z,4.65
2023-03-24T02:01:02.488Z,3.90
2023-03-24T02:03:52.960Z,4.28
2023-03-24T02:06:45.026Z,4.38
2023-03-24T02:09:33.913Z,4.15
2023-03-24T02:12:21.999Z,4.95
2023-03-24T02:15:11.093Z,4.53
2023-03-24T02:18:08.303Z,4.10
2023-03-24T02:21:42.711Z,4.28
2023-03-24T02:25:01.331Z,5.05
2023-03-24T02:28:15.711Z,4.93
2023-03-24T02:31:42.697Z,4.55
2023-03-24T02:35:11.636Z,4.80
2023-03-24T02:38:43.734Z,4.93
2023-03-24T02:41:40.811Z,4.53
2023-03-24T02:44:39.015Z,5.15
2023-03-24T02:47:32.988Z,4.10
2023-03-24T02:50:29.300Z,4.63
2023-03-24T02:53:22.862Z,4.72
2023-03-24T02:56:16.506Z,4.72
2023-03-24T02:59:08.107Z,4.25
2023-03-24T03:02:02.963Z,4.47
2023-03-24T03:04:56.075Z,4.82
2023-03-24T03:07:46.144Z,4.88
2023-03-24T03:10:37.532Z,5.07
2023-03-24T03:13:30.626Z,4.78
2023-03-24T03:16:25.320Z,4.85
2023-03-24T03:19:18.807Z,4.55
2023-03-24T03:22:14.677Z,5.30
2023-03-24T03:25:05.233Z,5.43
2023-03-24T03:27:56.675Z,5.22
2023-03-24T03:30:49.699Z,5.15
2023-03-24T03:33:45.637Z,5.13
2023-03-24T03:36:39.484Z,4.95
2023-03-24T03:39:32.132Z,5.50
2023-03-24T03:42:20.508Z,5.60
2023-03-24T03:45:11.043Z,5.60
2023-03-24T03:47:59.336Z,5.75
2023-03-24T03:50:51.894Z,5.30
2023-03-24T03:53:50.062Z,5.40
2023-03-24T03:56:39.435Z,5.10
2023-03-24T03:59:29.902Z,5.68
2023-03-24T04:02:38.098Z,5.75
2023-03-24T04:05:29.942Z,4.60
2023-03-24T04:08:29.686Z,5.27
2023-03-24T04:11:46.313Z,5.32
2023-03-24T04:15:19.252Z,5.13
2023-03-24T04:18:46.038Z,5.83
2023-03-24T04:21:51.740Z,5.72
2023-03-24T04:24:49.913Z,6.25
2023-03-24T04:27:46.532Z,5.47
2023-03-24T04:30:43.956Z,5.95
2023-03-24T04:33:39.238Z,5.43
2023-03-24T04:36:34.590Z,5.45
2023-03-24T04:39:28.260Z,5.35
2023-03-24T04:42:22.173Z,5.88
2023-03-24T04:45:12.254Z,6.15
2023-03-24T04:48:04.565Z,5.05
2023-03-24T04:50:56.848Z,4.90
2023-03-24T04:53:44.637Z,5.82
2023-03-24T04:56:40.340Z,6.25
2023-03-24T04:59:29.853Z,6.40
2023-03-24T05:02:18.710Z,6.57
2023-03-24T05:05:08.958Z,5.72
2023-03-24T05:07:57.106Z,5.72
2023-03-24T05:10:46.380Z,5.43
2023-03-24T05:13:34.155Z,5.55
2023-03-24T05:16:23.734Z,6.05
2023-03-24T05:19:12.213Z,6.80
2023-03-24T05:22:01.181Z,6.47
2023-03-24T05:24:48.930Z,6.32
2023-03-24T05:27:37.022Z,6.95
2023-03-24T05:30:25.078Z,7.38
2023-03-24T05:33:14.287Z,7.10
2023-03-24T05:36:02.409Z,6.40
2023-03-24T05:38:50.481Z,6.75
2023-03-24T05:41:38.525Z,5.45
2023-03-24T05:44:26.704Z,5.60
2023-03-24T05:47:16.123Z,4.72
2023-03-24T05:50:05.842Z,5.78
2023-03-24T05:52:53.716Z,4.68
2023-03-24T05:55:41.681Z,4.47
2023-03-24T05:58:29.472Z,4.00
2023-03-24T06:01:18.409Z,4.13
2023-03-24T06:04:06.591Z,3.60
2023-03-24T06:06:55.979Z,3.63
2023-03-24T06:09:47.068Z,4.30
2023-03-24T06:12:35.539Z,3.80
2023-03-24T06:15:24.326Z,3.97
2023-03-24T06:18:14.113Z,3.88
2023-03-24T06:21:02.167Z,3.63
2023-03-24T06:23:51.294Z,3.58
2023-03-24T06:26:42.148Z,3.83
2023-03-24T06:29:31.107Z,4.40
2023-03-24T06:32:20.754Z,4.47
2023-03-24T06:35:09.311Z,3.72
2023-03-24T06:37:57.219Z,4.05
2023-03-24T06:40:46.501Z,4.50
2023-03-24T06:43:34.836Z,5.32
2023-03-24T06:46:22.836Z,4.82
2023-03-24T06:49:10.974Z,5.50
2023-03-24T06:51:58.908Z,5.20
2023-03-24T06:54:46.718Z,5.53
2023-03-24T06:57:36.793Z,5.13
2023-03-24T07:00:25.808Z,5.00
2023-03-24T07:03:14.253Z,4.60
2023-03-24T07:06:02.454Z,5.35
2023-03-24T07:08:50.745Z,4.57
2023-03-24T07:11:41.320Z,3.85
2023-03-24T07:14:30.483Z,3.90
2023-03-24T07:17:18.340Z,4.43
2023-03-24T07:20:08.400Z,3.80
2023-03-24T07:22:57.675Z,4.20
2023-03-24T07:25:45.879Z,3.88
2023-03-24T07:28:33.658Z,3.55
2023-03-24T07:31:24.735Z,3.70
2023-03-24T07:34:13.259Z,4.90
2023-03-24T07:37:02.134Z,3.97
2023-03-24T07:39:50.128Z,4.57
2023-03-24T07:42:38.672Z,4.93
2023-03-24T07:45:28.296Z,5.55
2023-03-24T07:48:17.742Z,5.35
2023-03-24T07:51:05.762Z,4.60
2023-03-24T07:53:53.449Z,5.70
2023-03-24T07:56:42.078Z,5.47
2023-03-24T07:59:30.207Z,4.40
2023-03-24T08:02:19.756Z,5.75
2023-03-24T08:05:10.356Z,4.18
2023-03-24T08:08:00.232Z,6.32
2023-03-24T08:10:50.484Z,5.00
2023-03-24T08:13:38.525Z,5.95
2023-03-24T08:16:26.679Z,7.43
2023-03-24T08:19:14.678Z,5.80
2023-03-24T08:22:04.972Z,5.97
2023-03-24T08:24:52.842Z,7.28
2023-03-24T08:27:44.901Z,8.60
2023-03-24T08:30:33.256Z,7.72
2023-03-24T08:33:21.319Z,7.00
2023-03-24T08:36:09.595Z,7.63
2023-03-24T08:38:59.775Z,11.20
2023-03-24T08:41:50.101Z,12.40
2023-03-24T08:44:37.871Z,8.40
2023-03-24T08:47:26.247Z,9.70
2023-03-24T08:50:14.330Z,7.95
2023-03-24T08:53:02.947Z,6.82
2023-03-24T08:55:52.590Z,7.50
2023-03-24T08:58:40.648Z,7.25
2023-03-24T09:01:28.611Z,6.85
2023-03-24T09:04:16.652Z,7.13
2023-03-24T09:07:04.757Z,6.88
2023-03-24T09:09:52.609Z,6.05
2023-03-24T09:12:43.695Z,6.47
2023-03-24T09:15:31.623Z,6.45
2023-03-24T09:18:20.866Z,4.88
2023-03-24T09:21:09.504Z,6.07
2023-03-24T09:23:57.278Z,4.22
2023-03-24T09:26:45.357Z,5.40
2023-03-24T09:29:34.810Z,5.63
2023-03-24T09:32:23.149Z,5.10
2023-03-24T09:35:11.240Z,5.18
2023-03-24T09:38:01.356Z,4.72
2023-03-24T09:40:55.195Z,6.40
2023-03-24T09:43:46.232Z,4.65
2023-03-24T09:46:39.050Z,6.40
2023-03-24T09:49:32.564Z,5.90
2023-03-24T09:52:25.878Z,5.28
2023-03-24T09:55:18.409Z,5.13
2023-03-24T09:58:09.100Z,5.00
2023-03-24T10:00:57.630Z,5.25
2023-03-24T10:03:47.935Z,5.63
2023-03-24T10:06:41.849Z,5.70
2023-03-24T10:09:32.100Z,3.92
2023-03-24T10:12:28.653Z,4.60
2023-03-24T10:15:50.074Z,5.53
2023-03-24T10:18:39.151Z,5.88
2023-03-24T10:21:33.514Z,6.22
2023-03-24T10:24:28.884Z,4.97
2023-03-24T10:27:24.786Z,9.30
2023-03-24T10:30:18.098Z,8.52
2023-03-24T10:33:06.287Z,6.88
2023-03-24T10:36:02.035Z,5.90
2023-03-24T10:38:51.585Z,4.90
2023-03-24T10:41:42.187Z,4.43
2023-03-24T10:44:31.068Z,4.18
2023-03-24T10:47:23.709Z,3.42
2023-03-24T10:50:14.644Z,3.67
2023-03-24T10:53:10.835Z,3.17
2023-03-24T10:56:00.796Z,3.60
2023-03-24T10:58:49.443Z,4.50
2023-03-24T11:01:39.910Z,3.92
2023-03-24T11:04:29.495Z,4.72
2023-03-24T11:07:20.850Z,9.50
2023-03-24T11:10:17.060Z,18.45
2023-03-24T11:13:08.015Z,12.77
2023-03-24T11:16:05.657Z,13.82
2023-03-24T11:18:59.723Z,15.48
2023-03-24T11:21:49.538Z,8.55
2023-03-24T11:24:39.077Z,6.07
2023-03-24T11:27:27.260Z,5.55
2023-03-24T11:30:17.370Z,6.03
2023-03-24T11:33:07.198Z,3.72
2023-03-24T11:36:05.217Z,4.20
2023-03-24T11:39:02.300Z,3.58
2023-03-24T11:42:07.545Z,3.83
2023-03-24T11:44:56.494Z,5.50
2023-03-24T11:47:45.858Z,7.82
2023-03-24T11:50:38.904Z,6.35
2023-03-24T11:53:33.730Z,6.18
2023-03-24T11:56:28.707Z,5.30
2023-03-24T11:59:30.040Z,4.35
2023-03-24T12:02:26.501Z,4.57
2023-03-24T12:05:30.264Z,4.80
2023-03-24T12:08:28.118Z,4.63
2023-03-24T12:11:23.807Z,5.82
2023-03-24T12:14:11.580Z,4.97
2023-03-24T12:17:07.863Z,5.05
2023-03-24T12:20:09.787Z,5.97
2023-03-24T12:23:05.608Z,5.60
2023-03-24T12:26:22.013Z,7.70
2023-03-24T12:29:38.317Z,4.40
2023-03-24T12:32:43.233Z,6.38
2023-03-24T12:35:53.160Z,5.10
2023-03-24T12:38:56.337Z,3.60
2023-03-24T12:41:56.088Z,4.85
2023-03-24T12:45:06.875Z,5.40
2023-03-24T12:48:21.180Z,5.38
2023-03-24T12:51:21.896Z,5.32
2023-03-24T12:54:24.226Z,4.80
2023-03-24T12:57:15.450Z,4.18
2023-03-24T13:00:11.849Z,4.55
2023-03-24T13:03:02.265Z,3.60
2023-03-24T13:06:01.949Z,3.28
2023-03-24T13:09:08.103Z,2.90
2023-03-24T13:12:08.077Z,2.33
2023-03-24T13:15:04.414Z,2.60
2023-03-24T13:18:08.601Z,4.00
2023-03-24T13:21:01.977Z,5.22
2023-03-24T13:23:57.317Z,6.82
2023-03-24T13:26:54.150Z,7.60
2023-03-24T13:30:21.816Z,8.00
2023-03-24T13:33:16.034Z,4.85
2023-03-24T13:36:20.813Z,4.13
2023-03-24T13:39:15.572Z,2.80
2023-03-24T13:42:04.507Z,3.20
2023-03-24T13:44:52.340Z,3.45
2023-03-24T13:47:53.805Z,3.30
2023-03-24T13:50:51.423Z,3.00
2023-03-24T13:53:41.440Z,4.22
2023-03-24T13:56:34.169Z,4.57
2023-03-24T13:59:29.490Z,4.15
2023-03-24T14:02:24.438Z,3.95
2023-03-24T14:05:29.908Z,4.40
2023-03-24T14:08:19.175Z,4.35
2023-03-24T14:11:11.665Z,7.10
2023-03-24T14:14:08.952Z,6.65
2023-03-24T14:17:15.528Z,8.57
2023-03-24T14:20:25.604Z,5.40
2023-03-24T14:23:25.157Z,7.75
2023-03-24T14:26:16.219Z,7.35
2023-03-24T14:29:04.477Z,8.88
2023-03-24T14:32:17.282Z,7.25
2023-03-24T14:35:34.313Z,5.28
2023-03-24T14:38:26.041Z,4.90
2023-03-24T14:41:23.367Z,4.07
2023-03-24T14:44:11.448Z,3.28
2023-03-24T14:47:00.553Z,3.55
2023-03-24T14:49:50.834Z,3.42
2023-03-24T14:52:45.902Z,2.83
2023-03-24T14:55:35.871Z,3.25
2023-03-24T14:58:27.910Z,2.90
2023-03-24T15:01:17.286Z,2.78
2023-03-24T15:04:08.060Z,2.85
2023-03-24T15:06:56.197Z,2.45
2023-03-24T15:09:51.477Z,2.72
2023-03-24T15:12:39.174Z,2.90
2023-03-24T15:15:28.975Z,2.83
2023-03-24T15:18:19.556Z,2.90
2023-03-24T15:21:17.242Z,2.95
2023-03-24T15:24:26.373Z,2.85
2023-03-24T15:27:31.690Z,2.75
2023-03-24T15:30:20.618Z,2.47
2023-03-24T15:33:11.454Z,3.05
2023-03-24T15:36:02.510Z,2.17
2023-03-24T15:38:53.250Z,3.03
2023-03-24T15:41:41.069Z,5.05
2023-03-24T15:44:31.567Z,7.60
2023-03-24T15:47:23.881Z,6.00
2023-03-24T15:50:30.727Z,5.82
2023-03-24T15:53:27.216Z,8.52
2023-03-24T15:56:19.850Z,9.40
2023-03-24T15:59:16.189Z,9.05
2023-03-24T16:02:11.844Z,3.20
2023-03-24T16:05:10.983Z,13.45
2023-03-24T16:08:01.326Z,11.25
2023-03-24T16:10:59.691Z,4.75
2023-03-24T16:13:47.914Z,11.73
2023-03-24T16:16:39.384Z,14.00
2023-03-24T16:19:29.295Z,14.23
2023-03-24T16:22:16.930Z,13.32
2023-03-24T16:25:05.134Z,14.43
2023-03-24T16:27:53.113Z,14.05
2023-03-24T16:30:44.085Z,14.18
2023-03-24T16:33:32.663Z,13.52
2023-03-24T16:36:23.552Z,12.20
2023-03-24T16:39:16.984Z,13.60
2023-03-24T16:42:04.868Z,9.07
2023-03-24T16:44:52.456Z,5.40
2023-03-24T16:47:40.572Z,4.63
2023-03-24T16:50:33.072Z,3.53
2023-03-24T16:53:22.840Z,3.97
2023-03-24T16:56:12.982Z,3.45
2023-03-24T16:59:00.761Z,5.80
2023-03-24T17:01:49.482Z,3.95
2023-03-24T17:04:37.715Z,4.43
2023-03-24T17:07:25.635Z,4.50
2023-03-24T17:10:15.326Z,4.57
2023-03-24T17:13:03.349Z,4.97
2023-03-24T17:15:52.168Z,5.50
2023-03-24T17:18:39.930Z,5.18
2023-03-24T17:21:28.148Z,5.78
2023-03-24T17:24:16.818Z,5.95
2023-03-24T17:27:11.123Z,5.82
2023-03-24T17:29:58.997Z,6.53
2023-03-24T17:32:46.921Z,7.13
2023-03-24T17:35:34.659Z,6.57
2023-03-24T17:38:22.647Z,6.10
2023-03-24T17:41:10.829Z,5.90
2023-03-24T17:43:59.942Z,5.32
2023-03-24T17:46:49.821Z,5.22
2023-03-24T17:49:38.099Z,5.75
2023-03-24T17:52:26.699Z,5.45
2023-03-24T17:55:16.192Z,6.20
2023-03-24T17:58:04.226Z,6.38
2023-03-24T18:00:54.157Z,7.07
2023-03-24T18:03:42.963Z,6.63
2023-03-24T18:06:30.797Z,5.85
2023-03-24T18:09:18.663Z,6.55
2023-03-24T18:12:07.085Z,5.85
2023-03-24T18:14:55.300Z,5.55
2023-03-24T18:17:44.738Z,4.90
2023-03-24T18:20:33.004Z,4.75
2023-03-24T18:23:21.300Z,4.28
2023-03-24T18:26:10.390Z,4.60
2023-03-24T18:28:58.419Z,4.20
2023-03-24T18:31:46.362Z,4.15
2023-03-24T18:34:35.932Z,3.67
2023-03-24T18:37:23.985Z,3.78
2023-03-24T18:40:14.860Z,4.13
2023-03-24T18:43:02.646Z,4.60
2023-03-24T18:45:50.920Z,6.10
2023-03-24T18:48:39.924Z,6.53
2023-03-24T18:51:29.648Z,5.95
2023-03-24T18:54:17.193Z,7.30
2023-03-24T18:57:05.390Z,6.43
2023-03-24T18:59:53.226Z,5.80
2023-03-24T19:02:41.187Z,5.20
2023-03-24T19:05:29.982Z,2.40
2023-03-24T19:08:19.034Z,2.65
2023-03-24T19:11:07.552Z,2.08
2023-03-24T19:13:57.961Z,2.85
2023-03-24T19:16:45.971Z,2.58
2023-03-24T19:19:33.974Z,3.00
2023-03-24T19:22:22.180Z,2.75
2023-03-24T19:25:11.729Z,2.88
2023-03-24T19:27:59.930Z,3.20
2023-03-24T19:30:47.687Z,3.33
2023-03-24T19:33:36.203Z,2.78
2023-03-24T19:36:25.527Z,3.72
2023-03-24T19:39:14.694Z,3.25
2023-03-24T19:42:07.674Z,2.88
2023-03-24T19:44:55.877Z,2.92
2023-03-24T19:47:45.894Z,2.42
2023-03-24T19:50:34.309Z,2.58
2023-03-24T19:53:23.672Z,2.25
2023-03-24T19:56:12.009Z,2.05
2023-03-24T19:59:01.553Z,2.42
2023-03-24T20:01:49.826Z,2.15
2023-03-24T20:04:37.507Z,2.03
2023-03-24T20:07:26.550Z,2.53
2023-03-24T20:10:14.808Z,2.05
2023-03-24T20:13:02.822Z,2.00
2023-03-24T20:15:52.491Z,2.20
2023-03-24T20:18:40.743Z,2.70
2023-03-24T20:21:30.020Z,2.25
2023-03-24T20:24:17.851Z,1.85
2023-03-24T20:27:06.289Z,1.90
2023-03-24T20:29:54.474Z,1.80
2023-03-24T20:32:43.803Z,1.85
2023-03-24T20:35:32.650Z,2.13
2023-03-24T20:38:21.361Z,2.05
2023-03-24T20:41:09.517Z,2.05
2023-03-24T20:43:57.509Z,2.30
2023-03-24T20:46:45.993Z,2.30
2023-03-24T20:49:35.476Z,2.17
2023-03-24T20:52:24.320Z,2.50
2023-03-24T20:55:12.442Z,2.35
2023-03-24T20:58:01.292Z,2.80
2023-03-24T21:00:51.854Z,3.10
2023-03-24T21:03:40.794Z,2.95
2023-03-24T21:06:31.730Z,2.97
2023-03-24T21:09:22.232Z,2.50
2023-03-24T21:12:10.245Z,2.67
2023-03-24T21:14:59.785Z,2.50
2023-03-24T21:17:48.018Z,2.78
2023-03-24T21:20:37.246Z,2.72
2023-03-24T21:23:32.659Z,3.15
2023-03-24T21:26:21.117Z,2.13
2023-03-24T21:29:09.094Z,2.38
2023-03-24T21:31:56.932Z,2.65
2023-03-24T21:34:45.035Z,2.50
2023-03-24T21:37:32.704Z,2.63
2023-03-24T21:40:24.736Z,2.55
2023-03-24T21:43:14.764Z,3.08
2023-03-24T21:46:04.089Z,3.58
2023-03-24T21:48:55.413Z,3.85
2023-03-24T21:51:44.590Z,3.30
2023-03-24T21:54:33.305Z,3.28
2023-03-24T21:57:22.300Z,2.50
2023-03-24T22:00:14.650Z,2.42
2023-03-24T22:03:03.711Z,2.08
2023-03-24T22:05:51.928Z,2.10
2023-03-24T22:08:43.495Z,2.22
2023-03-24T22:11:31.636Z,2.00
2023-03-24T22:14:21.148Z,2.17
2023-03-24T22:17:08.905Z,2.00
2023-03-24T22:19:56.692Z,2.17
2023-03-24T22:22:45.148Z,2.35
2023-03-24T22:25:34.335Z,2.17
2023-03-24T22:28:22.104Z,2.58
2023-03-24T22:31:12.913Z,2.00
2023-03-24T22:34:00.916Z,2.38
2023-03-24T22:36:48.882Z,2.30
2023-03-24T22:39:36.812Z,2.17
2023-03-24T22:42:24.876Z,2.20
2023-03-24T22:45:12.950Z,2.30
2023-03-24T22:48:02.209Z,1.98
2023-03-24T22:50:50.972Z,2.25
2023-03-24T22:53:38.981Z,2.05
2023-03-24T22:56:26.870Z,2.60
2023-03-24T22:59:15.026Z,2.17
2023-03-24T23:02:09.144Z,1.60
2023-03-24T23:04:59.304Z,2.03
2023-03-24T23:07:47.549Z,2.30
2023-03-24T23:10:35.584Z,2.47
2023-03-24T23:13:23.648Z,1.80
2023-03-24T23:16:11.485Z,1.23
2023-03-24T23:18:59.208Z,1.13
2023-03-24T23:21:48.561Z,1.30
2023-03-24T23:24:39.262Z,1.40
2023-03-24T23:27:27.200Z,1.40
2023-03-24T23:30:16.349Z,1.20
2023-03-24T23:33:04.721Z,1.10
2023-03-24T23:35:58.195Z,0.90
2023-03-24T23:38:50.536Z,0.90
2023-03-24T23:41:38.728Z,0.90
2023-03-24T23:44:26.698Z,1.00
2023-03-24T23:47:14.514Z,0.93
2023-03-24T23:50:02.721Z,1.00
2023-03-24T23:52:50.876Z,0.90
2023-03-24T23:55:41.684Z,1.30
2023-03-24T23:58:31.200Z,1.10
